sensor_id;sensor_type;location;lat;lon;timestamp;P1;durP1;ratioP1;P2;durP2;ratioP2
77868;SDS011;67231;59.144;37.934;2024-03-02T00:00:25;7.20;;;3.28;;
77868;SDS011;67231;59.144;37.934;2024-03-02T00:02:56;6.90;;;2.90;;
77868;SDS011;67231;59.144;37.934;2024-03-02T00:05:26;5.75;;;3.00;;
77868;SDS011;67231;59.144;37.934;2024-03-02T00:10:43;5.97;;;3.28;;
77868;SDS011;67231;59.144;37.934;2024-03-02T00:13:13;5.15;;;2.63;;
77868;SDS011;67231;59.144;37.934;2024-03-02T00:15:55;4.57;;;2.60;;
77868;SDS011;67231;59.144;37.934;2024-03-02T00:18:32;5.72;;;2.80;;
77868;SDS011;67231;59.144;37.934;2024-03-02T00:21:02;4.38;;;2.47;;
77868;SDS011;67231;59.144;37.934;2024-03-02T00:23:42;5.80;;;2.80;;
77868;SDS011;67231;59.144;37.934;2024-03-02T00:26:11;3.78;;;2.50;;
77868;SDS011;67231;59.144;37.934;2024-03-02T00:28:44;5.55;;;2.80;;
77868;SDS011;67231;59.144;37.934;2024-03-02T00:31:19;5.18;;;3.17;;
77868;SDS011;67231;59.144;37.934;2024-03-02T00:33:47;5.15;;;3.05;;
77868;SDS011;67231;59.144;37.934;2024-03-02T00:42:08;6.40;;;2.90;;
77868;SDS011;67231;59.144;37.934;2024-03-02T00:47:38;5.32;;;3.03;;
77868;SDS011;67231;59.144;37.934;2024-03-02T00:50:21;4.40;;;2.65;;
77868;SDS011;67231;59.144;37.934;2024-03-02T00:52:48;4.65;;;2.35;;
77868;SDS011;67231;59.144;37.934;2024-03-02T00:55:25;5.47;;;3.15;;
77868;SDS011;67231;59.144;37.934;2024-03-02T00:57:52;5.57;;;3.03;;
77868;SDS011;67231;59.144;37.934;2024-03-02T01:00:26;6.45;;;2.60;;
77868;SDS011;67231;59.144;37.934;2024-03-02T01:02:56;5.32;;;2.58;;
77868;SDS011;67231;59.144;37.934;2024-03-02T01:08:23;6.05;;;3.15;;
77868;SDS011;67231;59.144;37.934;2024-03-02T01:10:51;4.35;;;2.22;;
77868;SDS011;67231;59.144;37.934;2024-03-02T01:13:18;6.45;;;3.58;;
77868;SDS011;67231;59.144;37.934;2024-03-02T01:15:44;7.13;;;3.13;;
77868;SDS011;67231;59.144;37.934;2024-03-02T01:18:12;7.68;;;3.47;;
77868;SDS011;67231;59.144;37.934;2024-03-02T01:20:42;4.95;;;2.80;;
77868;SDS011;67231;59.144;37.934;2024-03-02T01:23:09;5.15;;;2.80;;
77868;SDS011;67231;59.144;37.934;2024-03-02T01:25:36;5.30;;;2.63;;
77868;SDS011;67231;59.144;37.934;2024-03-02T01:28:04;8.50;;;3.22;;
77868;SDS011;67231;59.144;37.934;2024-03-02T01:30:31;5.88;;;3.00;;
77868;SDS011;67231;59.144;37.934;2024-03-02T01:35:54;5.85;;;3.03;;
77868;SDS011;67231;59.144;37.934;2024-03-02T01:38:24;5.57;;;3.00;;
77868;SDS011;67231;59.144;37.934;2024-03-02T01:40:51;6.25;;;2.97;;
77868;SDS011;67231;59.144;37.934;2024-03-02T01:43:18;5.32;;;3.42;;
77868;SDS011;67231;59.144;37.934;2024-03-02T01:45:45;5.70;;;3.20;;
77868;SDS011;67231;59.144;37.934;2024-03-02T01:48:23;4.95;;;2.20;;
77868;SDS011;67231;59.144;37.934;2024-03-02T01:50:49;6.50;;;3.25;;
77868;SDS011;67231;59.144;37.934;2024-03-02T01:53:16;5.40;;;3.22;;
77868;SDS011;67231;59.144;37.934;2024-03-02T01:55:44;5.82;;;3.15;;
77868;SDS011;67231;59.144;37.934;2024-03-02T01:58:10;6.05;;;3.10;;
77868;SDS011;67231;59.144;37.934;2024-03-02T02:00:37;5.57;;;2.90;;
77868;SDS011;67231;59.144;37.934;2024-03-02T02:03:04;6.45;;;3.00;;
77868;SDS011;67231;59.144;37.934;2024-03-02T02:05:50;6.00;;;3.30;;
77868;SDS011;67231;59.144;37.934;2024-03-02T02:11:09;6.43;;;3.40;;
77868;SDS011;67231;59.144;37.934;2024-03-02T02:13:37;8.30;;;3.83;;
77868;SDS011;67231;59.144;37.934;2024-03-02T02:16:10;5.45;;;3.13;;
77868;SDS011;67231;59.144;37.934;2024-03-02T02:18:37;5.85;;;3.40;;
77868;SDS011;67231;59.144;37.934;2024-03-02T02:21:04;6.47;;;3.05;;
77868;SDS011;67231;59.144;37.934;2024-03-02T02:23:30;6.22;;;3.25;;
77868;SDS011;67231;59.144;37.934;2024-03-02T02:25:58;7.07;;;3.50;;
77868;SDS011;67231;59.144;37.934;2024-03-02T02:28:26;6.47;;;3.53;;
77868;SDS011;67231;59.144;37.934;2024-03-02T02:30:54;6.57;;;3.38;;
77868;SDS011;67231;59.144;37.934;2024-03-02T02:33:23;7.10;;;3.60;;
77868;SDS011;67231;59.144;37.934;2024-03-02T02:35:50;6.20;;;3.38;;
77868;SDS011;67231;59.144;37.934;2024-03-02T02:38:17;4.60;;;2.80;;
77868;SDS011;67231;59.144;37.934;2024-03-02T02:40:43;7.25;;;3.40;;
77868;SDS011;67231;59.144;37.934;2024-03-02T02:43:10;6.00;;;3.25;;
77868;SDS011;67231;59.144;37.934;2024-03-02T02:45:36;8.27;;;3.70;;
77868;SDS011;67231;59.144;37.934;2024-03-02T02:50:55;6.00;;;3.20;;
77868;SDS011;67231;59.144;37.934;2024-03-02T02:53:22;7.10;;;3.60;;
77868;SDS011;67231;59.144;37.934;2024-03-02T02:55:57;7.22;;;4.00;;
77868;SDS011;67231;59.144;37.934;2024-03-02T02:58:24;9.70;;;4.20;;
77868;SDS011;67231;59.144;37.934;2024-03-02T03:00:51;8.40;;;4.30;;
77868;SDS011;67231;59.144;37.934;2024-03-02T03:03:18;10.27;;;4.60;;
77868;SDS011;67231;59.144;37.934;2024-03-02T03:05:46;9.75;;;4.50;;
77868;SDS011;67231;59.144;37.934;2024-03-02T03:08:13;9.32;;;4.18;;
77868;SDS011;67231;59.144;37.934;2024-03-02T03:10:39;8.57;;;4.15;;
77868;SDS011;67231;59.144;37.934;2024-03-02T03:13:06;7.30;;;3.75;;
77868;SDS011;67231;59.144;37.934;2024-03-02T03:15:39;8.55;;;3.90;;
77868;SDS011;67231;59.144;37.934;2024-03-02T03:18:06;8.80;;;3.58;;
77868;SDS011;67231;59.144;37.934;2024-03-02T03:20:39;7.07;;;3.58;;
77868;SDS011;67231;59.144;37.934;2024-03-02T03:23:06;6.47;;;3.00;;
77868;SDS011;67231;59.144;37.934;2024-03-02T03:25:33;5.43;;;3.30;;
77868;SDS011;67231;59.144;37.934;2024-03-02T03:28:00;5.72;;;3.10;;
77868;SDS011;67231;59.144;37.934;2024-03-02T03:33:23;5.72;;;3.47;;
77868;SDS011;67231;59.144;37.934;2024-03-02T03:38:41;6.90;;;3.47;;
77868;SDS011;67231;59.144;37.934;2024-03-02T03:44:02;7.65;;;4.00;;
77868;SDS011;67231;59.144;37.934;2024-03-02T03:46:29;6.43;;;3.28;;
77868;SDS011;67231;59.144;37.934;2024-03-02T03:48:56;7.07;;;3.20;;
77868;SDS011;67231;59.144;37.934;2024-03-02T03:51:23;6.30;;;3.28;;
77868;SDS011;67231;59.144;37.934;2024-03-02T03:53:51;7.15;;;3.58;;
77868;SDS011;67231;59.144;37.934;2024-03-02T03:56:17;7.85;;;3.40;;
77868;SDS011;67231;59.144;37.934;2024-03-02T03:58:44;7.53;;;3.72;;
77868;SDS011;67231;59.144;37.934;2024-03-02T04:01:10;5.85;;;3.63;;
77868;SDS011;67231;59.144;37.934;2024-03-02T04:03:37;7.05;;;3.40;;
77868;SDS011;67231;59.144;37.934;2024-03-02T04:06:05;6.68;;;3.40;;
77868;SDS011;67231;59.144;37.934;2024-03-02T04:08:33;5.60;;;2.97;;
77868;SDS011;67231;59.144;37.934;2024-03-02T04:11:00;6.53;;;3.42;;
77868;SDS011;67231;59.144;37.934;2024-03-02T04:13:29;6.13;;;3.30;;
77868;SDS011;67231;59.144;37.934;2024-03-02T04:16:09;7.63;;;3.55;;
77868;SDS011;67231;59.144;37.934;2024-03-02T04:18:35;5.45;;;2.72;;
77868;SDS011;67231;59.144;37.934;2024-03-02T04:24:00;6.07;;;3.20;;
77868;SDS011;67231;59.144;37.934;2024-03-02T04:26:27;5.45;;;3.10;;
77868;SDS011;67231;59.144;37.934;2024-03-02T04:29:01;5.60;;;2.80;;
77868;SDS011;67231;59.144;37.934;2024-03-02T04:31:29;5.35;;;3.20;;
77868;SDS011;67231;59.144;37.934;2024-03-02T04:36:25;5.15;;;3.20;;
77868;SDS011;67231;59.144;37.934;2024-03-02T04:38:52;5.07;;;2.60;;
77868;SDS011;67231;59.144;37.934;2024-03-02T04:41:20;4.13;;;2.40;;
77868;SDS011;67231;59.144;37.934;2024-03-02T04:43:47;4.05;;;2.58;;
77868;SDS011;67231;59.144;37.934;2024-03-02T04:46:14;5.88;;;2.95;;
77868;SDS011;67231;59.144;37.934;2024-03-02T04:48:41;5.35;;;3.03;;
77868;SDS011;67231;59.144;37.934;2024-03-02T04:51:09;6.55;;;3.33;;
77868;SDS011;67231;59.144;37.934;2024-03-02T04:53:37;5.00;;;3.00;;
77868;SDS011;67231;59.144;37.934;2024-03-02T04:56:04;6.05;;;3.20;;
77868;SDS011;67231;59.144;37.934;2024-03-02T05:01:43;5.95;;;3.30;;
77868;SDS011;67231;59.144;37.934;2024-03-02T05:04:13;4.85;;;2.88;;
77868;SDS011;67231;59.144;37.934;2024-03-02T05:06:43;5.90;;;3.35;;
77868;SDS011;67231;59.144;37.934;2024-03-02T05:09:10;6.55;;;3.25;;
77868;SDS011;67231;59.144;37.934;2024-03-02T05:11:41;5.47;;;2.95;;
77868;SDS011;67231;59.144;37.934;2024-03-02T05:14:10;5.13;;;3.15;;
77868;SDS011;67231;59.144;37.934;2024-03-02T05:16:37;5.88;;;3.30;;
77868;SDS011;67231;59.144;37.934;2024-03-02T05:19:07;8.73;;;2.83;;
77868;SDS011;67231;59.144;37.934;2024-03-02T05:21:35;6.18;;;3.38;;
77868;SDS011;67231;59.144;37.934;2024-03-02T05:24:03;5.40;;;2.95;;
77868;SDS011;67231;59.144;37.934;2024-03-02T05:26:33;5.75;;;3.22;;
77868;SDS011;67231;59.144;37.934;2024-03-02T05:28:59;4.53;;;2.65;;
77868;SDS011;67231;59.144;37.934;2024-03-02T05:31:26;7.97;;;3.28;;
77868;SDS011;67231;59.144;37.934;2024-03-02T05:33:53;5.63;;;3.10;;
77868;SDS011;67231;59.144;37.934;2024-03-02T05:36:23;6.13;;;3.20;;
77868;SDS011;67231;59.144;37.934;2024-03-02T05:39:00;6.20;;;3.50;;
77868;SDS011;67231;59.144;37.934;2024-03-02T05:41:28;5.80;;;3.33;;
77868;SDS011;67231;59.144;37.934;2024-03-02T05:43:56;5.75;;;3.15;;
77868;SDS011;67231;59.144;37.934;2024-03-02T05:46:23;8.38;;;3.88;;
77868;SDS011;67231;59.144;37.934;2024-03-02T05:48:50;7.38;;;3.60;;
77868;SDS011;67231;59.144;37.934;2024-03-02T05:54:11;7.15;;;3.90;;
77868;SDS011;67231;59.144;37.934;2024-03-02T06:00:01;7.53;;;3.60;;
77868;SDS011;67231;59.144;37.934;2024-03-02T06:02:40;9.82;;;4.35;;
77868;SDS011;67231;59.144;37.934;2024-03-02T06:05:07;7.35;;;3.75;;
77868;SDS011;67231;59.144;37.934;2024-03-02T06:07:35;7.43;;;3.85;;
77868;SDS011;67231;59.144;37.934;2024-03-02T06:10:04;6.82;;;3.15;;
77868;SDS011;67231;59.144;37.934;2024-03-02T06:12:34;7.50;;;3.22;;
77868;SDS011;67231;59.144;37.934;2024-03-02T06:15:05;7.03;;;3.90;;
77868;SDS011;67231;59.144;37.934;2024-03-02T06:17:34;8.02;;;4.03;;
77868;SDS011;67231;59.144;37.934;2024-03-02T06:20:09;8.15;;;3.55;;
77868;SDS011;67231;59.144;37.934;2024-03-02T06:22:39;7.80;;;4.63;;
77868;SDS011;67231;59.144;37.934;2024-03-02T06:25:11;8.25;;;4.05;;
77868;SDS011;67231;59.144;37.934;2024-03-02T06:27:41;8.00;;;4.15;;
77868;SDS011;67231;59.144;37.934;2024-03-02T06:30:10;6.22;;;3.65;;
77868;SDS011;67231;59.144;37.934;2024-03-02T06:32:37;6.80;;;3.08;;
77868;SDS011;67231;59.144;37.934;2024-03-02T06:35:07;5.13;;;2.83;;
77868;SDS011;67231;59.144;37.934;2024-03-02T06:37:36;4.50;;;2.78;;
77868;SDS011;67231;59.144;37.934;2024-03-02T06:40:05;4.88;;;3.13;;
77868;SDS011;67231;59.144;37.934;2024-03-02T06:42:34;3.85;;;2.22;;
77868;SDS011;67231;59.144;37.934;2024-03-02T06:47:53;5.35;;;2.88;;
77868;SDS011;67231;59.144;37.934;2024-03-02T06:50:30;5.35;;;2.80;;
77868;SDS011;67231;59.144;37.934;2024-03-02T06:52:57;5.30;;;2.83;;
77868;SDS011;67231;59.144;37.934;2024-03-02T06:55:26;5.53;;;3.15;;
77868;SDS011;67231;59.144;37.934;2024-03-02T06:57:53;7.40;;;3.67;;
77868;SDS011;67231;59.144;37.934;2024-03-02T07:00:20;5.88;;;3.10;;
77868;SDS011;67231;59.144;37.934;2024-03-02T07:02:47;5.38;;;3.08;;
77868;SDS011;67231;59.144;37.934;2024-03-02T07:05:39;5.65;;;3.38;;
77868;SDS011;67231;59.144;37.934;2024-03-02T07:08:15;5.30;;;2.88;;
77868;SDS011;67231;59.144;37.934;2024-03-02T07:10:46;4.80;;;3.03;;
77868;SDS011;67231;59.144;37.934;2024-03-02T07:13:13;3.88;;;2.60;;
77868;SDS011;67231;59.144;37.934;2024-03-02T07:15:40;4.68;;;2.70;;
77868;SDS011;67231;59.144;37.934;2024-03-02T07:18:32;5.00;;;2.90;;
77868;SDS011;67231;59.144;37.934;2024-03-02T07:24:00;5.90;;;2.92;;
77868;SDS011;67231;59.144;37.934;2024-03-02T07:26:30;5.65;;;2.65;;
77868;SDS011;67231;59.144;37.934;2024-03-02T07:28:59;5.82;;;3.17;;
77868;SDS011;67231;59.144;37.934;2024-03-02T07:31:28;8.98;;;3.00;;
77868;SDS011;67231;59.144;37.934;2024-03-02T07:34:06;6.90;;;3.13;;
77868;SDS011;67231;59.144;37.934;2024-03-02T07:36:36;8.73;;;3.25;;
77868;SDS011;67231;59.144;37.934;2024-03-02T07:39:07;5.10;;;3.45;;
77868;SDS011;67231;59.144;37.934;2024-03-02T07:41:34;5.68;;;2.78;;
77868;SDS011;67231;59.144;37.934;2024-03-02T07:44:10;4.70;;;3.03;;
77868;SDS011;67231;59.144;37.934;2024-03-02T07:46:42;5.15;;;3.08;;
77868;SDS011;67231;59.144;37.934;2024-03-02T07:49:12;5.35;;;3.10;;
77868;SDS011;67231;59.144;37.934;2024-03-02T07:51:42;5.95;;;3.30;;
77868;SDS011;67231;59.144;37.934;2024-03-02T07:54:12;6.82;;;3.47;;
77868;SDS011;67231;59.144;37.934;2024-03-02T07:56:39;8.18;;;3.85;;
77868;SDS011;67231;59.144;37.934;2024-03-02T07:59:10;6.72;;;3.78;;
77868;SDS011;67231;59.144;37.934;2024-03-02T08:01:48;9.20;;;3.15;;
77868;SDS011;67231;59.144;37.934;2024-03-02T08:04:23;6.70;;;3.25;;
77868;SDS011;67231;59.144;37.934;2024-03-02T08:06:50;5.53;;;3.30;;
77868;SDS011;67231;59.144;37.934;2024-03-02T08:09:16;4.60;;;2.80;;
77868;SDS011;67231;59.144;37.934;2024-03-02T08:11:43;5.00;;;3.10;;
77868;SDS011;67231;59.144;37.934;2024-03-02T08:14:11;7.30;;;3.65;;
77868;SDS011;67231;59.144;37.934;2024-03-02T08:17:03;5.85;;;2.90;;
77868;SDS011;67231;59.144;37.934;2024-03-02T08:19:36;5.40;;;3.00;;
77868;SDS011;67231;59.144;37.934;2024-03-02T08:25:01;9.15;;;3.78;;
77868;SDS011;67231;59.144;37.934;2024-03-02T08:27:37;5.72;;;3.05;;
77868;SDS011;67231;59.144;37.934;2024-03-02T08:30:14;6.97;;;3.25;;
77868;SDS011;67231;59.144;37.934;2024-03-02T08:32:45;7.88;;;3.50;;
77868;SDS011;67231;59.144;37.934;2024-03-02T08:35:17;6.57;;;3.75;;
77868;SDS011;67231;59.144;37.934;2024-03-02T08:37:59;5.53;;;3.30;;
77868;SDS011;67231;59.144;37.934;2024-03-02T08:40:34;5.97;;;2.90;;
77868;SDS011;67231;59.144;37.934;2024-03-02T08:43:01;6.35;;;3.30;;
77868;SDS011;67231;59.144;37.934;2024-03-02T08:45:27;8.63;;;4.07;;
77868;SDS011;67231;59.144;37.934;2024-03-02T08:47:54;8.95;;;4.07;;
77868;SDS011;67231;59.144;37.934;2024-03-02T08:50:27;8.27;;;3.90;;
77868;SDS011;67231;59.144;37.934;2024-03-02T08:52:53;7.20;;;3.50;;
77868;SDS011;67231;59.144;37.934;2024-03-02T08:55:20;7.18;;;3.85;;
77868;SDS011;67231;59.144;37.934;2024-03-02T08:57:48;14.40;;;5.47;;
77868;SDS011;67231;59.144;37.934;2024-03-02T09:00:17;7.80;;;3.08;;
77868;SDS011;67231;59.144;37.934;2024-03-02T09:02:45;7.88;;;4.07;;
77868;SDS011;67231;59.144;37.934;2024-03-02T09:05:14;10.63;;;6.15;;
77868;SDS011;67231;59.144;37.934;2024-03-02T09:07:43;8.32;;;4.25;;
77868;SDS011;67231;59.144;37.934;2024-03-02T09:10:09;8.23;;;4.18;;
77868;SDS011;67231;59.144;37.934;2024-03-02T09:12:36;6.93;;;3.60;;
77868;SDS011;67231;59.144;37.934;2024-03-02T09:15:04;5.82;;;3.17;;
77868;SDS011;67231;59.144;37.934;2024-03-02T09:17:35;7.93;;;3.78;;
77868;SDS011;67231;59.144;37.934;2024-03-02T09:20:02;6.68;;;2.95;;
77868;SDS011;67231;59.144;37.934;2024-03-02T09:22:30;6.07;;;3.00;;
77868;SDS011;67231;59.144;37.934;2024-03-02T09:27:51;4.35;;;2.50;;
77868;SDS011;67231;59.144;37.934;2024-03-02T09:30:19;5.82;;;2.85;;
77868;SDS011;67231;59.144;37.934;2024-03-02T09:32:46;6.38;;;3.40;;
77868;SDS011;67231;59.144;37.934;2024-03-02T09:35:12;5.38;;;2.72;;
77868;SDS011;67231;59.144;37.934;2024-03-02T09:37:39;4.15;;;2.33;;
77868;SDS011;67231;59.144;37.934;2024-03-02T09:40:05;5.00;;;3.20;;
77868;SDS011;67231;59.144;37.934;2024-03-02T09:42:37;5.95;;;3.10;;
77868;SDS011;67231;59.144;37.934;2024-03-02T09:45:08;5.95;;;3.35;;
77868;SDS011;67231;59.144;37.934;2024-03-02T09:50:27;4.97;;;2.83;;
77868;SDS011;67231;59.144;37.934;2024-03-02T09:52:54;7.07;;;3.20;;
77868;SDS011;67231;59.144;37.934;2024-03-02T09:55:20;3.35;;;1.88;;
77868;SDS011;67231;59.144;37.934;2024-03-02T09:57:48;6.32;;;3.17;;
77868;SDS011;67231;59.144;37.934;2024-03-02T10:03:32;5.78;;;3.30;;
77868;SDS011;67231;59.144;37.934;2024-03-02T10:06:19;6.10;;;3.22;;
77868;SDS011;67231;59.144;37.934;2024-03-02T10:08:48;5.68;;;3.10;;
77868;SDS011;67231;59.144;37.934;2024-03-02T10:16:44;4.72;;;2.95;;
77868;SDS011;67231;59.144;37.934;2024-03-02T10:19:21;4.63;;;3.10;;
77868;SDS011;67231;59.144;37.934;2024-03-02T10:21:59;7.38;;;3.38;;
77868;SDS011;67231;59.144;37.934;2024-03-02T10:29:42;7.88;;;3.47;;
77868;SDS011;67231;59.144;37.934;2024-03-02T10:32:21;5.47;;;3.00;;
77868;SDS011;67231;59.144;37.934;2024-03-02T10:38:05;5.55;;;2.70;;
77868;SDS011;67231;59.144;37.934;2024-03-02T10:40:33;5.72;;;2.88;;
77868;SDS011;67231;59.144;37.934;2024-03-02T10:43:05;6.90;;;3.47;;
77868;SDS011;67231;59.144;37.934;2024-03-02T10:45:51;7.90;;;3.80;;
77868;SDS011;67231;59.144;37.934;2024-03-02T10:48:20;7.15;;;3.83;;
77868;SDS011;67231;59.144;37.934;2024-03-02T10:50:56;4.90;;;2.60;;
77868;SDS011;67231;59.144;37.934;2024-03-02T10:53:29;6.13;;;3.63;;
77868;SDS011;67231;59.144;37.934;2024-03-02T10:56:08;8.02;;;4.25;;
77868;SDS011;67231;59.144;37.934;2024-03-02T10:58:46;9.85;;;4.15;;
77868;SDS011;67231;59.144;37.934;2024-03-02T11:01:18;6.55;;;3.33;;
77868;SDS011;67231;59.144;37.934;2024-03-02T11:03:46;7.18;;;3.58;;
77868;SDS011;67231;59.144;37.934;2024-03-02T11:06:13;7.70;;;4.00;;
77868;SDS011;67231;59.144;37.934;2024-03-02T11:09:00;8.18;;;3.75;;
77868;SDS011;67231;59.144;37.934;2024-03-02T11:12:06;4.93;;;3.40;;
77868;SDS011;67231;59.144;37.934;2024-03-02T11:14:51;5.97;;;3.80;;
77868;SDS011;67231;59.144;37.934;2024-03-02T11:17:26;9.43;;;4.80;;
77868;SDS011;67231;59.144;37.934;2024-03-02T11:20:04;8.77;;;4.10;;
77868;SDS011;67231;59.144;37.934;2024-03-02T11:25:39;6.57;;;4.20;;
77868;SDS011;67231;59.144;37.934;2024-03-02T11:28:14;7.20;;;3.53;;
77868;SDS011;67231;59.144;37.934;2024-03-02T11:33:40;7.45;;;3.60;;
77868;SDS011;67231;59.144;37.934;2024-03-02T11:36:28;7.18;;;3.92;;
77868;SDS011;67231;59.144;37.934;2024-03-02T11:39:17;8.85;;;4.72;;
77868;SDS011;67231;59.144;37.934;2024-03-02T11:41:44;7.78;;;4.25;;
77868;SDS011;67231;59.144;37.934;2024-03-02T11:47:00;6.35;;;3.47;;
77868;SDS011;67231;59.144;37.934;2024-03-02T11:52:09;5.88;;;4.00;;
77868;SDS011;67231;59.144;37.934;2024-03-02T11:54:39;7.97;;;3.75;;
77868;SDS011;67231;59.144;37.934;2024-03-02T11:57:12;8.48;;;4.00;;
77868;SDS011;67231;59.144;37.934;2024-03-02T11:59:45;5.32;;;3.33;;
77868;SDS011;67231;59.144;37.934;2024-03-02T12:02:21;8.57;;;4.53;;
77868;SDS011;67231;59.144;37.934;2024-03-02T12:04:51;8.98;;;4.47;;
77868;SDS011;67231;59.144;37.934;2024-03-02T12:07:23;6.70;;;3.30;;
77868;SDS011;67231;59.144;37.934;2024-03-02T12:10:00;9.18;;;4.20;;
77868;SDS011;67231;59.144;37.934;2024-03-02T12:19:01;8.60;;;4.38;;
77868;SDS011;67231;59.144;37.934;2024-03-02T12:21:29;12.93;;;5.22;;
77868;SDS011;67231;59.144;37.934;2024-03-02T12:23:55;14.68;;;5.10;;
77868;SDS011;67231;59.144;37.934;2024-03-02T12:26:27;10.40;;;5.15;;
77868;SDS011;67231;59.144;37.934;2024-03-02T12:28:54;10.90;;;4.75;;
77868;SDS011;67231;59.144;37.934;2024-03-02T12:31:22;8.73;;;4.60;;
77868;SDS011;67231;59.144;37.934;2024-03-02T12:33:50;7.82;;;4.28;;
77868;SDS011;67231;59.144;37.934;2024-03-02T12:36:30;8.07;;;4.20;;
77868;SDS011;67231;59.144;37.934;2024-03-02T12:39:03;10.40;;;5.32;;
77868;SDS011;67231;59.144;37.934;2024-03-02T12:41:31;12.52;;;5.70;;
77868;SDS011;67231;59.144;37.934;2024-03-02T12:43:57;9.80;;;5.43;;
77868;SDS011;67231;59.144;37.934;2024-03-02T12:46:27;9.10;;;4.20;;
77868;SDS011;67231;59.144;37.934;2024-03-02T12:49:04;6.40;;;3.78;;
77868;SDS011;67231;59.144;37.934;2024-03-02T12:54:33;7.57;;;4.28;;
77868;SDS011;67231;59.144;37.934;2024-03-02T12:57:02;6.95;;;3.75;;
77868;SDS011;67231;59.144;37.934;2024-03-02T12:59:28;8.43;;;4.80;;
77868;SDS011;67231;59.144;37.934;2024-03-02T13:01:56;8.02;;;4.10;;
77868;SDS011;67231;59.144;37.934;2024-03-02T13:04:28;9.05;;;4.68;;
77868;SDS011;67231;59.144;37.934;2024-03-02T13:06:55;6.40;;;3.72;;
77868;SDS011;67231;59.144;37.934;2024-03-02T13:09:23;8.57;;;4.55;;
77868;SDS011;67231;59.144;37.934;2024-03-02T13:11:50;10.15;;;5.10;;
77868;SDS011;67231;59.144;37.934;2024-03-02T13:14:17;7.63;;;4.00;;
77868;SDS011;67231;59.144;37.934;2024-03-02T13:16:44;7.78;;;4.05;;
77868;SDS011;67231;59.144;37.934;2024-03-02T13:19:13;6.55;;;3.60;;
77868;SDS011;67231;59.144;37.934;2024-03-02T13:21:40;7.38;;;4.50;;
77868;SDS011;67231;59.144;37.934;2024-03-02T13:24:08;9.48;;;5.18;;
77868;SDS011;67231;59.144;37.934;2024-03-02T13:26:35;10.80;;;5.22;;
77868;SDS011;67231;59.144;37.934;2024-03-02T13:29:01;11.05;;;4.95;;
77868;SDS011;67231;59.144;37.934;2024-03-02T13:31:28;11.45;;;5.50;;
77868;SDS011;67231;59.144;37.934;2024-03-02T13:33:58;11.38;;;5.10;;
77868;SDS011;67231;59.144;37.934;2024-03-02T13:36:24;10.93;;;5.43;;
77868;SDS011;67231;59.144;37.934;2024-03-02T13:38:51;11.75;;;4.97;;
77868;SDS011;67231;59.144;37.934;2024-03-02T13:41:17;10.90;;;4.78;;
77868;SDS011;67231;59.144;37.934;2024-03-02T13:43:44;10.80;;;5.72;;
77868;SDS011;67231;59.144;37.934;2024-03-02T13:46:11;7.90;;;4.57;;
77868;SDS011;67231;59.144;37.934;2024-03-02T13:48:38;8.13;;;4.35;;
77868;SDS011;67231;59.144;37.934;2024-03-02T13:51:05;12.63;;;5.03;;
77868;SDS011;67231;59.144;37.934;2024-03-02T13:53:40;13.93;;;5.32;;
77868;SDS011;67231;59.144;37.934;2024-03-02T13:56:15;11.93;;;5.50;;
77868;SDS011;67231;59.144;37.934;2024-03-02T13:58:46;11.52;;;5.13;;
77868;SDS011;67231;59.144;37.934;2024-03-02T14:01:12;9.80;;;4.40;;
77868;SDS011;67231;59.144;37.934;2024-03-02T14:03:41;11.35;;;4.95;;
77868;SDS011;67231;59.144;37.934;2024-03-02T14:09:26;9.85;;;4.57;;
77868;SDS011;67231;59.144;37.934;2024-03-02T14:11:57;10.25;;;5.40;;
77868;SDS011;67231;59.144;37.934;2024-03-02T14:14:23;11.52;;;4.63;;
77868;SDS011;67231;59.144;37.934;2024-03-02T14:16:50;9.77;;;4.63;;
77868;SDS011;67231;59.144;37.934;2024-03-02T14:19:16;10.40;;;4.75;;
77868;SDS011;67231;59.144;37.934;2024-03-02T14:21:43;10.07;;;4.60;;
77868;SDS011;67231;59.144;37.934;2024-03-02T14:24:10;13.88;;;5.93;;
77868;SDS011;67231;59.144;37.934;2024-03-02T14:26:37;12.27;;;5.65;;
77868;SDS011;67231;59.144;37.934;2024-03-02T14:29:04;8.43;;;4.30;;
77868;SDS011;67231;59.144;37.934;2024-03-02T14:31:40;8.30;;;3.80;;
77868;SDS011;67231;59.144;37.934;2024-03-02T14:34:06;11.40;;;4.20;;
77868;SDS011;67231;59.144;37.934;2024-03-02T14:36:32;8.45;;;4.00;;
77868;SDS011;67231;59.144;37.934;2024-03-02T14:39:01;6.30;;;3.53;;
77868;SDS011;67231;59.144;37.934;2024-03-02T14:41:29;8.20;;;4.10;;
77868;SDS011;67231;59.144;37.934;2024-03-02T14:43:55;8.75;;;4.15;;
77868;SDS011;67231;59.144;37.934;2024-03-02T14:46:22;7.03;;;4.10;;
77868;SDS011;67231;59.144;37.934;2024-03-02T14:48:48;8.65;;;4.07;;
77868;SDS011;67231;59.144;37.934;2024-03-02T14:51:16;10.57;;;4.28;;
77868;SDS011;67231;59.144;37.934;2024-03-02T14:53:42;8.95;;;4.63;;
77868;SDS011;67231;59.144;37.934;2024-03-02T14:56:08;10.45;;;5.18;;
77868;SDS011;67231;59.144;37.934;2024-03-02T14:58:35;6.63;;;3.67;;
77868;SDS011;67231;59.144;37.934;2024-03-02T15:01:03;8.52;;;4.13;;
77868;SDS011;67231;59.144;37.934;2024-03-02T15:03:35;7.00;;;3.50;;
77868;SDS011;67231;59.144;37.934;2024-03-02T15:06:04;9.13;;;3.97;;
77868;SDS011;67231;59.144;37.934;2024-03-02T15:08:31;6.85;;;3.40;;
77868;SDS011;67231;59.144;37.934;2024-03-02T15:11:00;6.35;;;3.50;;
77868;SDS011;67231;59.144;37.934;2024-03-02T15:13:32;7.90;;;3.90;;
77868;SDS011;67231;59.144;37.934;2024-03-02T15:16:00;7.18;;;3.53;;
77868;SDS011;67231;59.144;37.934;2024-03-02T15:18:27;7.55;;;3.97;;
77868;SDS011;67231;59.144;37.934;2024-03-02T15:20:53;7.38;;;3.67;;
77868;SDS011;67231;59.144;37.934;2024-03-02T15:23:21;3.38;;;1.70;;
77868;SDS011;67231;59.144;37.934;2024-03-02T15:25:47;9.13;;;4.13;;
77868;SDS011;67231;59.144;37.934;2024-03-02T15:28:27;6.25;;;3.80;;
77868;SDS011;67231;59.144;37.934;2024-03-02T15:30:54;7.35;;;3.60;;
77868;SDS011;67231;59.144;37.934;2024-03-02T15:33:20;5.05;;;3.22;;
77868;SDS011;67231;59.144;37.934;2024-03-02T15:35:51;6.60;;;3.60;;
77868;SDS011;67231;59.144;37.934;2024-03-02T15:38:18;6.10;;;3.20;;
77868;SDS011;67231;59.144;37.934;2024-03-02T15:40:46;6.22;;;3.20;;
77868;SDS011;67231;59.144;37.934;2024-03-02T15:46:10;5.72;;;3.03;;
77868;SDS011;67231;59.144;37.934;2024-03-02T15:48:42;4.90;;;3.17;;
77868;SDS011;67231;59.144;37.934;2024-03-02T15:54:36;3.10;;;2.00;;
77868;SDS011;67231;59.144;37.934;2024-03-02T15:57:04;6.00;;;3.10;;
77868;SDS011;67231;59.144;37.934;2024-03-02T15:59:30;5.95;;;3.83;;
77868;SDS011;67231;59.144;37.934;2024-03-02T16:01:57;6.25;;;3.95;;
77868;SDS011;67231;59.144;37.934;2024-03-02T16:04:24;6.20;;;3.60;;
77868;SDS011;67231;59.144;37.934;2024-03-02T16:06:54;5.40;;;2.97;;
77868;SDS011;67231;59.144;37.934;2024-03-02T16:09:20;7.10;;;3.65;;
77868;SDS011;67231;59.144;37.934;2024-03-02T16:11:50;6.85;;;3.70;;
77868;SDS011;67231;59.144;37.934;2024-03-02T16:14:34;5.97;;;3.20;;
77868;SDS011;67231;59.144;37.934;2024-03-02T16:17:01;6.68;;;3.20;;
77868;SDS011;67231;59.144;37.934;2024-03-02T16:19:30;6.30;;;3.28;;
77868;SDS011;67231;59.144;37.934;2024-03-02T16:21:57;4.88;;;3.28;;
77868;SDS011;67231;59.144;37.934;2024-03-02T16:24:23;4.63;;;2.75;;
77868;SDS011;67231;59.144;37.934;2024-03-02T16:26:52;6.30;;;3.78;;
77868;SDS011;67231;59.144;37.934;2024-03-02T16:29:19;4.03;;;2.95;;
77868;SDS011;67231;59.144;37.934;2024-03-02T16:31:55;6.03;;;3.00;;
77868;SDS011;67231;59.144;37.934;2024-03-02T16:34:21;4.38;;;2.92;;
77868;SDS011;67231;59.144;37.934;2024-03-02T16:36:50;6.47;;;3.15;;